Time;durP1;ratioP1;P1;durP2;ratioP2;P2;SDS_P1;SDS_P2;PMS_P1;PMS_P2;Temp;Humidity;BMP_temperature;BMP_pressure;BME280_temperature;BME280_humidity;BME280_pressure;Samples;Min_cycle;Max_cycle;Signal;HPM_P1;HPM_P2
2022/10/08 00:00:59;;;;;;;11.70;3.20;;;12.30;99.90;;;;;;4952373;28;20100;-87
2022/10/08 00:03:28;;;;;;;13.20;3.30;;;12.40;99.90;;;;;;4960928;28;20038;-88
2022/10/08 00:05:59;;;;;;;10.18;2.90;;;12.40;99.90;;;;;;4974050;28;20126;-88
2022/10/08 00:08:26;;;;;;;13.52;3.10;;;12.50;99.90;;;;;;4974184;28;20081;-88
2022/10/08 00:10:57;;;;;;;10.60;3.20;;;12.40;99.90;;;;;;4959172;28;20078;-87
2022/10/08 00:13:25;;;;;;;11.85;3.08;;;12.40;99.90;;;;;;4973637;28;20516;-87
2022/10/08 00:15:51;;;;;;;12.98;3.30;;;12.40;99.90;;;;;;4950612;28;20039;-88
2022/10/08 00:18:18;;;;;;;12.95;3.00;;;12.50;99.90;;;;;;4941296;28;20038;-88
2022/10/08 00:20:44;;;;;;;14.40;3.50;;;12.50;99.90;;;;;;4942448;28;20035;-88
2022/10/08 00:23:09;;;;;;;12.75;3.28;;;12.50;99.90;;;;;;4926093;28;20038;-88
2022/10/08 00:25:41;;;;;;;15.18;3.10;;;12.50;99.90;;;;;;4910453;28;20042;-88
2022/10/08 00:28:10;;;;;;;13.80;3.38;;;12.50;99.90;;;;;;4944474;28;20034;-88
2022/10/08 00:30:38;;;;;;;12.77;3.13;;;12.40;99.90;;;;;;4960907;28;20049;-87
2022/10/08 00:33:06;;;;;;;14.10;3.20;;;12.50;99.90;;;;;;4960847;28;20048;-88
2022/10/08 00:35:37;;;;;;;13.95;3.22;;;12.50;99.90;;;;;;4961272;28;20039;-88
2022/10/08 00:38:03;;;;;;;16.15;2.97;;;12.40;99.90;;;;;;4945241;28;20052;-88
2022/10/08 00:40:29;;;;;;;8.93;2.90;;;12.40;99.90;;;;;;4960770;28;20042;-88
2022/10/08 00:42:54;;;;;;;11.02;2.97;;;12.50;99.90;;;;;;4971878;28;20045;-88
2022/10/08 00:45:20;;;;;;;9.80;3.22;;;12.50;99.90;;;;;;4927902;28;20065;-87
2022/10/08 00:47:47;;;;;;;13.77;3.15;;;12.40;99.90;;;;;;4928560;28;20070;-87
2022/10/08 00:50:18;;;;;;;12.95;3.35;;;12.40;99.90;;;;;;4972033;28;20046;-88
2022/10/08 00:52:51;;;;;;;12.75;3.40;;;12.30;99.90;;;;;;4963608;28;20034;-88
2022/10/08 00:55:20;;;;;;;15.10;3.38;;;12.30;99.90;;;;;;4963721;28;20030;-87
2022/10/08 00:57:46;;;;;;;12.90;3.55;;;12.30;99.90;;;;;;4963614;28;20074;-87
2022/10/08 01:00:16;;;;;;;12.68;3.47;;;12.20;99.90;;;;;;4963270;28;20046;-88
2022/10/08 01:02:42;;;;;;;15.57;3.75;;;12.20;99.90;;;;;;4963176;28;20096;-88
2022/10/08 01:05:10;;;;;;;12.57;3.38;;;12.10;99.90;;;;;;4945417;28;20046;-88
2022/10/08 01:07:53;;;;;;;14.63;3.67;;;12.10;99.90;;;;;;4963931;28;20042;-87
2022/10/08 01:10:39;;;;;;;14.10;3.78;;;12.10;99.90;;;;;;4979000;28;20129;-87
2022/10/08 01:13:52;;;;;;;15.38;4.18;;;12.10;99.90;;;;;;4963060;28;20073;-87
2022/10/08 01:16:47;;;;;;;15.85;3.97;;;12.10;99.90;;;;;;4913205;29;20084;-88
2022/10/08 01:19:34;;;;;;;13.35;3.80;;;12.00;99.90;;;;;;4943936;28;20046;-88
2022/10/08 01:22:34;;;;;;;15.82;4.78;;;12.00;99.90;;;;;;4957481;28;20517;-88
2022/10/08 01:25:32;;;;;;;15.00;4.53;;;12.00;99.90;;;;;;4963524;28;20125;-88
2022/10/08 01:28:24;;;;;;;13.98;4.90;;;11.90;99.90;;;;;;4944088;28;20102;-87
2022/10/08 01:31:17;;;;;;;14.75;4.95;;;12.00;99.90;;;;;;4975305;28;20106;-88
2022/10/08 01:34:07;;;;;;;11.90;4.65;;;12.00;99.90;;;;;;4963072;28;20041;-87
2022/10/08 01:36:37;;;;;;;11.63;4.40;;;12.00;99.90;;;;;;4935040;28;20046;-87
2022/10/08 01:39:07;;;;;;;11.18;4.07;;;12.00;99.90;;;;;;4962607;28;20039;-87
2022/10/08 01:41:33;;;;;;;11.05;4.35;;;12.00;99.90;;;;;;4978743;28;20045;-88
2022/10/08 01:44:22;;;;;;;12.13;4.15;;;12.00;99.90;;;;;;4943792;28;20079;-88
2022/10/08 01:46:50;;;;;;;14.45;4.97;;;12.00;99.90;;;;;;4935595;28;20055;-87
2022/10/08 01:49:21;;;;;;;12.20;4.70;;;11.90;99.90;;;;;;4941394;28;20047;-88
2022/10/08 01:51:52;;;;;;;13.10;3.97;;;11.90;99.90;;;;;;4944659;28;20038;-87
2022/10/08 01:54:21;;;;;;;13.25;4.10;;;11.90;99.90;;;;;;4971913;28;20501;-87
2022/10/08 01:56:48;;;;;;;12.75;4.07;;;11.90;99.90;;;;;;4961335;28;20117;-88
2022/10/08 01:59:19;;;;;;;11.82;3.88;;;11.90;99.90;;;;;;4959419;28;20046;-87
2022/10/08 02:01:59;;;;;;;11.35;3.90;;;11.90;99.90;;;;;;4958709;28;20042;-88
2022/10/08 02:04:33;;;;;;;10.95;4.00;;;11.90;99.90;;;;;;4943494;28;20046;-88
2022/10/08 02:07:07;;;;;;;8.75;3.47;;;12.00;99.90;;;;;;4958268;28;20042;-88
2022/10/08 02:09:39;;;;;;;11.15;3.72;;;12.00;99.90;;;;;;4970762;28;20050;-88
2022/10/08 02:12:06;;;;;;;8.65;3.80;;;12.00;99.90;;;;;;4961805;28;20505;-87
2022/10/08 02:14:35;;;;;;;9.20;3.50;;;12.00;99.90;;;;;;4962454;28;20034;-88
2022/10/08 02:17:25;;;;;;;9.95;4.18;;;12.00;99.90;;;;;;4974420;28;20031;-88
2022/10/08 02:20:02;;;;;;;12.90;4.38;;;12.00;99.90;;;;;;4948241;28;20046;-88
2022/10/08 02:22:57;;;;;;;13.30;4.20;;;12.00;99.90;;;;;;4946646;28;20038;-87
2022/10/08 02:25:35;;;;;;;9.50;4.00;;;12.00;99.90;;;;;;4962626;28;20188;-88
2022/10/08 02:28:44;;;;;;;8.73;4.30;;;12.00;99.90;;;;;;4965772;28;20085;-87
2022/10/08 02:31:45;;;;;;;13.80;4.40;;;12.10;99.90;;;;;;4961458;28;20042;-88
2022/10/08 02:34:26;;;;;;;11.63;4.60;;;12.10;99.90;;;;;;4971176;28;20122;-87
2022/10/08 02:37:09;;;;;;;12.77;4.43;;;12.10;99.90;;;;;;4974843;28;20078;-87
2022/10/08 02:39:39;;;;;;;10.20;4.53;;;12.00;99.90;;;;;;4957110;28;20046;-88
2022/10/08 02:42:09;;;;;;;12.82;4.68;;;12.00;99.90;;;;;;4969041;28;20180;-88
2022/10/08 02:44:57;;;;;;;12.68;5.10;;;12.00;99.90;;;;;;4961929;28;20444;-87
2022/10/08 02:47:27;;;;;;;13.15;5.20;;;12.00;99.90;;;;;;4977536;28;20046;-88
2022/10/08 02:49:57;;;;;;;11.68;5.03;;;12.00;99.90;;;;;;4977323;28;20061;-88
2022/10/08 02:52:26;;;;;;;11.15;5.05;;;12.00;99.90;;;;;;4961355;28;20042;-88
2022/10/08 02:54:55;;;;;;;9.45;3.92;;;12.00;99.90;;;;;;4961593;28;20089;-88
2022/10/08 02:57:42;;;;;;;10.85;4.35;;;12.00;99.90;;;;;;4960982;28;20035;-88
2022/10/08 03:00:09;;;;;;;11.50;4.00;;;11.90;99.90;;;;;;4945472;28;20064;-87
2022/10/08 03:02:41;;;;;;;10.23;4.32;;;11.90;99.90;;;;;;4922227;28;20505;-88
2022/10/08 03:05:16;;;;;;;;;;;11.90;99.90;;;;;;4958470;28;20541;-88
2022/10/08 03:07:42;;;;;;;9.07;3.70;;;11.90;99.90;;;;;;4952752;28;20008;-87
2022/10/08 03:10:10;;;;;;;8.32;3.60;;;11.90;99.90;;;;;;4944269;28;20069;-87
2022/10/08 03:12:36;;;;;;;11.05;4.10;;;11.90;99.90;;;;;;4941911;28;20050;-88
2022/10/08 03:15:02;;;;;;;9.73;4.40;;;11.90;99.90;;;;;;4961567;28;20047;-88
2022/10/08 03:17:33;;;;;;;8.57;3.78;;;11.80;99.90;;;;;;4941344;28;20043;-88
2022/10/08 03:20:04;;;;;;;8.13;4.10;;;11.80;99.90;;;;;;4954458;28;20038;-87
2022/10/08 03:22:32;;;;;;;11.32;4.22;;;11.70;99.90;;;;;;4959591;28;20045;-88
2022/10/08 03:24:57;;;;;;;11.00;4.03;;;11.70;99.90;;;;;;4967650;28;20081;-88
2022/10/08 03:27:23;;;;;;;10.40;4.65;;;11.70;99.90;;;;;;4928724;28;20074;-88
2022/10/08 03:29:50;;;;;;;10.73;4.55;;;11.70;99.90;;;;;;4937151;28;20051;-88
2022/10/08 03:32:16;;;;;;;10.48;4.00;;;11.70;99.90;;;;;;4968049;28;20043;-88
2022/10/08 03:34:42;;;;;;;10.82;4.30;;;11.60;99.90;;;;;;4961320;28;20097;-88
2022/10/08 03:37:07;;;;;;;10.07;3.97;;;11.60;99.90;;;;;;4917307;28;20039;-88
2022/10/08 03:39:33;;;;;;;9.00;4.03;;;11.60;99.90;;;;;;4940133;28;20045;-87
2022/10/08 03:41:59;;;;;;;8.43;3.80;;;11.60;99.90;;;;;;4950824;28;20509;-88
2022/10/08 03:44:24;;;;;;;9.60;3.85;;;11.50;99.90;;;;;;4960353;28;20493;-87
2022/10/08 03:46:50;;;;;;;9.32;4.40;;;11.50;99.90;;;;;;4944569;28;20054;-88
2022/10/08 03:49:15;;;;;;;12.70;4.80;;;11.40;99.90;;;;;;4925772;28;20053;-88
2022/10/08 03:51:41;;;;;;;10.98;4.53;;;11.30;99.90;;;;;;4944610;28;20034;-87
2022/10/08 03:54:07;;;;;;;8.35;3.80;;;11.30;99.90;;;;;;4960748;28;20038;-88
2022/10/08 03:56:33;;;;;;;10.50;4.70;;;11.30;99.90;;;;;;4928249;28;20504;-88
2022/10/08 03:58:59;;;;;;;9.57;4.47;;;11.30;99.90;;;;;;4944795;28;20042;-88
2022/10/08 04:01:27;;;;;;;10.70;4.03;;;11.30;99.90;;;;;;4960216;28;20038;-88
2022/10/08 04:03:53;;;;;;;12.10;4.70;;;11.20;99.90;;;;;;4960840;28;20038;-87
2022/10/08 04:06:19;;;;;;;10.82;5.20;;;11.10;99.90;;;;;;4944345;28;20045;-87
2022/10/08 04:08:45;;;;;;;10.00;4.10;;;11.10;99.90;;;;;;4959825;28;20043;-88
2022/10/08 04:11:13;;;;;;;10.43;5.45;;;11.00;99.90;;;;;;4944204;28;20407;-87
2022/10/08 04:13:39;;;;;;;11.20;4.70;;;11.00;99.90;;;;;;4976411;28;20081;-88
2022/10/08 04:16:09;;;;;;;9.43;4.47;;;11.00;99.90;;;;;;4960511;28;20481;-88
2022/10/08 04:18:34;;;;;;;13.18;4.85;;;11.00;99.90;;;;;;4975853;28;20046;-88
2022/10/08 04:21:03;;;;;;;12.07;5.63;;;11.10;99.90;;;;;;4944267;28;20516;-88
2022/10/08 04:23:31;;;;;;;11.23;4.72;;;11.10;99.90;;;;;;4948789;28;20105;-88
2022/10/08 04:25:57;;;;;;;11.95;4.38;;;11.10;99.90;;;;;;4974378;28;20044;-88
2022/10/08 04:28:23;;;;;;;9.25;4.60;;;11.10;99.90;;;;;;4943481;28;20038;-88
2022/10/08 04:31:00;;;;;;;14.20;6.53;;;11.20;99.90;;;;;;4973149;28;20167;-87
2022/10/08 04:33:27;;;;;;;13.00;6.05;;;11.20;99.90;;;;;;4963367;28;20035;-88
2022/10/08 04:35:54;;;;;;;13.32;5.35;;;11.30;99.90;;;;;;4927504;28;20509;-87
2022/10/08 04:38:20;;;;;;;13.02;5.55;;;11.20;99.90;;;;;;4960201;28;20037;-87
2022/10/08 04:40:47;;;;;;;12.18;5.40;;;11.30;99.90;;;;;;4976285;28;20377;-88
2022/10/08 04:43:13;;;;;;;12.68;5.40;;;11.30;99.90;;;;;;4940740;28;20035;-87
2022/10/08 04:45:45;;;;;;;13.20;5.47;;;11.30;99.90;;;;;;4936613;28;20085;-88
2022/10/08 04:48:12;;;;;;;16.08;5.60;;;11.30;99.90;;;;;;4940618;28;20086;-87
2022/10/08 04:50:38;;;;;;;11.43;5.07;;;11.30;99.90;;;;;;4935763;28;20072;-88
2022/10/08 04:53:05;;;;;;;11.27;5.05;;;11.30;99.90;;;;;;4957427;28;20104;-88
2022/10/08 04:55:31;;;;;;;10.30;5.32;;;11.40;99.90;;;;;;4949138;28;20049;-88
2022/10/08 04:57:57;;;;;;;12.15;5.57;;;11.30;99.90;;;;;;4943531;28;20497;-88
2022/10/08 05:00:23;;;;;;;13.57;5.60;;;11.30;99.90;;;;;;4944246;28;20046;-88
2022/10/08 05:02:50;;;;;;;14.00;5.43;;;11.30;99.90;;;;;;4940614;28;20046;-87
2022/10/08 05:05:16;;;;;;;12.43;5.82;;;11.30;99.90;;;;;;4958372;28;20042;-87
2022/10/08 05:07:41;;;;;;;15.45;6.53;;;11.30;99.90;;;;;;4934145;28;20516;-87
2022/10/08 05:10:07;;;;;;;12.85;5.95;;;11.40;99.90;;;;;;4956192;28;20054;-88
2022/10/08 05:12:33;;;;;;;13.57;6.13;;;11.30;99.90;;;;;;4927927;28;20038;-88
2022/10/08 05:14:59;;;;;;;13.50;5.38;;;11.40;99.90;;;;;;4959655;28;20157;-88
2022/10/08 05:17:24;;;;;;;11.20;5.72;;;11.40;99.90;;;;;;4921249;28;20105;-88
2022/10/08 05:19:50;;;;;;;12.82;5.20;;;11.40;99.90;;;;;;4917502;28;20617;-87
2022/10/08 05:22:16;;;;;;;13.18;4.82;;;11.40;99.90;;;;;;4955889;28;20049;-87
2022/10/08 05:24:41;;;;;;;12.98;4.63;;;11.40;99.90;;;;;;4956544;28;20043;-87
2022/10/08 05:27:07;;;;;;;13.73;4.20;;;11.40;99.90;;;;;;4939991;28;20071;-87
2022/10/08 05:29:33;;;;;;;10.32;4.30;;;11.40;99.90;;;;;;4975773;28;20038;-87
2022/10/08 05:31:59;;;;;;;12.63;4.45;;;11.40;99.90;;;;;;4958854;28;20070;-87
2022/10/08 05:34:24;;;;;;;11.10;4.35;;;11.40;99.90;;;;;;4961106;28;20121;-88
2022/10/08 05:36:50;;;;;;;13.00;5.05;;;11.40;99.90;;;;;;4953200;28;20043;-87
2022/10/08 05:39:16;;;;;;;11.95;4.85;;;11.30;99.90;;;;;;4959526;28;20042;-87
2022/10/08 05:41:41;;;;;;;11.70;5.22;;;11.30;99.90;;;;;;4975497;28;20047;-88
2022/10/08 05:44:09;;;;;;;14.93;6.13;;;11.30;99.90;;;;;;4941411;28;20081;-87
2022/10/08 05:46:36;;;;;;;13.85;5.60;;;11.30;99.90;;;;;;4943124;28;20125;-88
2022/10/08 05:49:04;;;;;;;12.63;4.80;;;11.30;99.90;;;;;;4971742;28;20081;-87
2022/10/08 05:51:31;;;;;;;11.77;4.90;;;11.20;99.90;;;;;;4962385;28;20034;-87
2022/10/08 05:53:58;;;;;;;12.20;4.90;;;11.20;99.90;;;;;;4978968;28;20037;-87
2022/10/08 05:56:25;;;;;;;10.35;4.43;;;11.20;99.90;;;;;;4961056;28;20042;-87
2022/10/08 05:58:52;;;;;;;12.68;5.00;;;11.20;99.90;;;;;;4950505;28;20038;-87
2022/10/08 06:01:26;;;;;;;11.23;4.85;;;11.10;99.90;;;;;;4951853;28;20043;-87
2022/10/08 06:04:06;;;;;;;11.43;5.07;;;11.10;99.90;;;;;;4958922;28;20088;-87
2022/10/08 06:06:34;;;;;;;13.55;4.65;;;11.10;99.90;;;;;;4955537;28;20536;-88
2022/10/08 06:09:00;;;;;;;10.63;4.13;;;11.00;99.90;;;;;;4956707;28;20400;-88
2022/10/08 06:11:31;;;;;;;12.25;4.25;;;11.00;99.90;;;;;;4961513;28;20051;-88
2022/10/08 06:13:59;;;;;;;11.38;3.92;;;11.00;99.90;;;;;;4962644;28;20050;-87
2022/10/08 06:16:25;;;;;;;12.02;4.10;;;10.90;99.90;;;;;;4958394;28;20405;-87
2022/10/08 06:18:51;;;;;;;11.25;3.60;;;10.90;99.90;;;;;;4979313;28;20046;-88
2022/10/08 06:21:23;;;;;;;11.85;3.70;;;10.90;99.90;;;;;;4966567;28;20049;-88
2022/10/08 06:23:51;;;;;;;9.97;3.30;;;10.90;99.90;;;;;;4963099;28;20046;-88
2022/10/08 06:26:17;;;;;;;9.63;3.40;;;10.80;99.90;;;;;;4956993;28;20085;-88
2022/10/08 06:28:44;;;;;;;13.40;3.58;;;10.90;99.90;;;;;;4956220;28;20089;-88
2022/10/08 06:31:11;;;;;;;11.13;3.92;;;10.80;99.90;;;;;;4955889;28;20049;-88
2022/10/08 06:33:36;;;;;;;11.05;3.50;;;10.90;99.90;;;;;;4954364;28;20038;-88
2022/10/08 06:36:11;;;;;;;10.05;4.00;;;10.90;99.90;;;;;;4927484;28;20045;-87
2022/10/08 06:38:36;;;;;;;10.10;3.78;;;10.90;99.90;;;;;;4959814;28;20058;-88
2022/10/08 06:41:02;;;;;;;14.77;4.57;;;11.00;99.90;;;;;;4926838;28;20043;-88
2022/10/08 06:43:28;;;;;;;14.70;4.75;;;11.10;99.90;;;;;;4947797;28;20125;-87
2022/10/08 06:45:55;;;;;;;13.05;4.47;;;11.20;99.90;;;;;;4912856;28;20413;-87
2022/10/08 06:48:22;;;;;;;11.18;4.15;;;11.20;99.90;;;;;;4951737;28;20508;-87
2022/10/08 06:50:47;;;;;;;12.45;4.65;;;11.20;99.90;;;;;;4942490;28;20090;-88
2022/10/08 06:53:13;;;;;;;13.15;5.20;;;11.30;99.90;;;;;;4928953;28;20034;-88
2022/10/08 06:55:39;;;;;;;10.75;4.22;;;11.30;99.90;;;;;;4940725;28;20061;-88
2022/10/08 06:58:05;;;;;;;17.90;5.43;;;11.50;99.90;;;;;;4941607;28;20173;-88
2022/10/08 07:00:31;;;;;;;14.38;5.20;;;11.50;99.90;;;;;;4958918;28;20072;-88
2022/10/08 07:02:57;;;;;;;16.25;5.35;;;11.60;99.90;;;;;;4934139;28;20035;-88
2022/10/08 07:05:25;;;;;;;12.90;4.65;;;11.60;99.90;;;;;;4941783;28;20098;-88
2022/10/08 07:07:51;;;;;;;13.40;4.30;;;11.60;99.90;;;;;;4933593;28;20085;-87
2022/10/08 07:10:17;;;;;;;11.25;4.22;;;11.60;99.90;;;;;;4942976;28;20050;-88
2022/10/08 07:12:43;;;;;;;11.32;4.80;;;11.50;99.90;;;;;;4944683;28;20038;-87
2022/10/08 07:15:09;;;;;;;12.18;4.47;;;11.60;99.90;;;;;;4929112;28;20502;-87
2022/10/08 07:17:36;;;;;;;11.90;4.78;;;11.60;99.90;;;;;;4925927;28;20038;-87
2022/10/08 07:20:01;;;;;;;12.15;4.90;;;11.70;99.90;;;;;;4939658;28;20042;-87
2022/10/08 07:22:27;;;;;;;14.25;5.07;;;11.70;99.90;;;;;;4941909;28;20449;-88
2022/10/08 07:24:53;;;;;;;15.13;5.18;;;11.70;99.90;;;;;;4967201;28;20100;-87
2022/10/08 07:27:19;;;;;;;11.48;4.78;;;11.70;99.90;;;;;;4942627;28;20498;-87
2022/10/08 07:29:45;;;;;;;13.90;5.05;;;11.80;99.90;;;;;;4960956;28;20051;-87
2022/10/08 07:32:11;;;;;;;13.98;5.07;;;11.80;99.90;;;;;;4929174;28;20040;-87
2022/10/08 07:34:37;;;;;;;14.40;4.88;;;11.80;99.90;;;;;;4941915;28;20039;-87
2022/10/08 07:37:02;;;;;;;14.43;4.53;;;11.90;99.90;;;;;;4952798;28;20406;-88
2022/10/08 07:39:28;;;;;;;14.45;4.90;;;11.90;99.90;;;;;;4915984;28;20552;-88
2022/10/08 07:41:54;;;;;;;13.60;4.60;;;11.90;99.90;;;;;;4928756;28;20513;-88
2022/10/08 07:44:20;;;;;;;11.52;4.80;;;12.00;99.90;;;;;;4960319;28;20038;-88
2022/10/08 07:46:47;;;;;;;14.40;4.75;;;12.00;99.90;;;;;;4929648;28;20130;-88
2022/10/08 07:49:15;;;;;;;12.35;4.47;;;12.00;99.90;;;;;;4971301;28;20080;-88
2022/10/08 07:51:41;;;;;;;12.27;4.30;;;12.10;99.90;;;;;;4960796;28;20429;-88
2022/10/08 07:54:10;;;;;;;11.80;4.20;;;12.20;99.90;;;;;;4976344;28;20174;-88
2022/10/08 07:56:36;;;;;;;13.07;4.10;;;12.30;99.90;;;;;;4976361;28;20034;-88
2022/10/08 07:59:04;;;;;;;12.85;3.92;;;12.40;99.90;;;;;;4944859;28;20046;-88
2022/10/08 08:01:32;;;;;;;17.33;4.00;;;12.60;99.90;;;;;;4958695;28;20038;-88
2022/10/08 08:03:59;;;;;;;10.88;3.83;;;12.70;99.90;;;;;;4957419;28;20047;-88
2022/10/08 08:06:25;;;;;;;14.68;3.30;;;12.70;99.90;;;;;;4954375;28;20042;-88
2022/10/08 08:08:51;;;;;;;12.55;3.00;;;12.70;99.90;;;;;;4928413;28;20042;-88
2022/10/08 08:11:19;;;;;;;11.02;2.90;;;12.70;99.90;;;;;;4944471;28;20058;-88
2022/10/08 08:13:45;;;;;;;13.32;3.42;;;12.80;99.90;;;;;;4960255;28;20038;-88
2022/10/08 08:16:19;;;;;;;10.77;3.13;;;12.80;99.90;;;;;;4976174;28;20073;-88
2022/10/08 08:18:47;;;;;;;12.70;2.90;;;12.80;99.90;;;;;;4946552;28;20049;-88
2022/10/08 08:21:15;;;;;;;10.65;2.85;;;12.80;99.90;;;;;;4960431;28;20077;-87
2022/10/08 08:23:43;;;;;;;13.15;3.03;;;12.80;99.90;;;;;;4941240;28;20081;-88
2022/10/08 08:26:13;;;;;;;11.93;2.72;;;12.90;99.90;;;;;;4963327;28;20038;-88
2022/10/08 08:28:38;;;;;;;11.88;2.80;;;12.90;99.90;;;;;;4976288;28;21953;-88
2022/10/08 08:31:32;;;;;;;8.60;2.40;;;13.00;99.90;;;;;;4975727;28;20076;-88
2022/10/08 08:34:01;;;;;;;13.90;3.00;;;13.00;99.90;;;;;;4959794;28;20050;-88
2022/10/08 08:36:29;;;;;;;11.40;2.50;;;13.10;99.90;;;;;;4957460;28;20039;-88
2022/10/08 08:38:55;;;;;;;11.98;2.70;;;13.20;99.90;;;;;;4953764;28;20046;-88
2022/10/08 08:41:45;;;;;;;14.32;2.60;;;13.20;99.90;;;;;;4960171;28;20077;-88
2022/10/08 08:44:15;;;;;;;12.18;2.67;;;13.30;99.90;;;;;;4959879;28;20049;-88
2022/10/08 08:47:09;;;;;;;12.07;2.30;;;13.50;99.90;;;;;;4959711;28;20053;-88
2022/10/08 08:49:47;;;;;;;8.48;2.28;;;13.70;99.90;;;;;;4956878;28;20058;-88
2022/10/08 08:52:21;;;;;;;11.77;2.20;;;13.80;99.90;;;;;;4960204;28;20034;-88
2022/10/08 08:54:49;;;;;;;10.45;2.38;;;13.80;99.90;;;;;;4948857;28;20074;-88
2022/10/08 08:58:00;;;;;;;11.82;2.10;;;14.00;99.90;;;;;;4943757;28;20081;-87
2022/10/08 09:00:34;;;;;;;12.65;2.28;;;14.20;99.90;;;;;;4957185;28;20051;-89
2022/10/08 09:03:02;;;;;;;9.98;2.00;;;14.30;99.90;;;;;;4959892;28;20042;-88
2022/10/08 09:05:32;;;;;;;9.70;1.98;;;14.40;99.90;;;;;;4949303;28;20052;-88
2022/10/08 09:08:05;;;;;;;10.23;1.83;;;14.40;99.90;;;;;;4963806;28;20069;-88
2022/10/08 09:10:41;;;;;;;9.68;1.92;;;14.30;99.90;;;;;;4949661;28;20073;-88
2022/10/08 09:13:36;;;;;;;8.95;2.08;;;14.50;99.90;;;;;;4966587;28;20042;-88
2022/10/08 09:16:02;;;;;;;10.23;1.92;;;14.50;99.90;;;;;;4968815;28;20078;-88
2022/10/08 09:18:28;;;;;;;10.48;2.40;;;14.70;99.90;;;;;;4947368;28;20039;-88
2022/10/08 09:20:54;;;;;;;12.52;2.25;;;14.90;99.90;;;;;;4949975;28;20072;-88
2022/10/08 09:23:22;;;;;;;11.85;2.40;;;15.00;99.90;;;;;;4947793;28;20121;-88
2022/10/08 09:26:03;;;;;;;12.23;2.25;;;15.20;99.90;;;;;;4964842;28;20065;-88
2022/10/08 09:28:40;;;;;;;9.23;1.98;;;15.30;99.90;;;;;;4954454;28;20045;-88
2022/10/08 09:31:20;;;;;;;13.07;1.98;;;15.20;99.90;;;;;;4962629;28;20038;-87
2022/10/08 09:34:14;;;;;;;11.38;2.00;;;15.00;99.90;;;;;;4963503;28;20433;-88
2022/10/08 09:37:03;;;;;;;9.70;1.90;;;14.90;99.90;;;;;;4952090;28;20069;-88
2022/10/08 09:39:31;;;;;;;9.35;2.00;;;14.70;99.90;;;;;;4962736;28;20046;-88
2022/10/08 09:42:10;;;;;;;9.45;1.75;;;14.50;99.90;;;;;;4962519;28;20125;-88
2022/10/08 09:44:50;;;;;;;8.05;1.73;;;14.60;99.90;;;;;;4963262;28;20485;-88
2022/10/08 09:47:21;;;;;;;10.13;1.70;;;14.60;99.90;;;;;;4962705;28;20108;-88
2022/10/08 09:50:20;;;;;;;9.30;1.55;;;14.70;99.90;;;;;;4975839;28;20043;-88
2022/10/08 09:52:48;;;;;;;8.70;1.40;;;14.70;99.90;;;;;;4956091;28;20078;-89
2022/10/08 09:55:29;;;;;;;8.73;1.50;;;14.70;99.90;;;;;;4947308;28;20030;-88
2022/10/08 09:58:01;;;;;;;7.77;1.70;;;14.80;99.90;;;;;;4978586;28;20448;-89
2022/10/08 10:00:36;;;;;;;11.00;1.90;;;15.20;99.90;;;;;;4947113;28;20045;-89
2022/10/08 10:03:04;;;;;;;8.85;1.80;;;15.40;99.90;;;;;;4944984;28;20351;-89
2022/10/08 10:05:32;;;;;;;9.40;1.90;;;15.50;99.90;;;;;;4962431;28;20042;-88
2022/10/08 10:07:58;;;;;;;7.60;1.85;;;15.70;99.90;;;;;;4961494;28;20184;-88
2022/10/08 10:10:39;;;;;;;10.35;1.80;;;16.00;99.90;;;;;;4924111;29;20146;-88
2022/10/08 10:13:25;;;;;;;10.02;2.08;;;16.20;99.90;;;;;;4953462;28;20050;-89
2022/10/08 10:16:18;;;;;;;9.38;1.60;;;16.40;99.90;;;;;;4948240;28;20038;-88
2022/10/08 10:18:50;;;;;;;6.32;1.30;;;16.60;99.90;;;;;;4971589;28;20071;-88
2022/10/08 10:21:39;;;;;;;9.73;1.60;;;16.70;99.90;;;;;;4959108;28;20073;-88
2022/10/08 10:24:23;;;;;;;9.90;1.40;;;16.60;99.90;;;;;;4958936;28;20216;-88
2022/10/08 10:26:52;;;;;;;8.43;1.50;;;16.40;99.90;;;;;;4958573;28;20047;-88
2022/10/08 10:29:21;;;;;;;8.63;1.45;;;16.10;99.90;;;;;;4954840;29;20035;-88
2022/10/08 10:31:58;;;;;;;7.65;2.20;;;15.80;99.90;;;;;;4964671;28;20126;-88
2022/10/08 10:34:29;;;;;;;7.32;1.80;;;15.40;99.90;;;;;;4958694;28;20030;-88
2022/10/08 10:36:58;;;;;;;9.77;2.08;;;15.20;99.90;;;;;;4958407;28;20098;-88
2022/10/08 10:39:37;;;;;;;7.45;1.90;;;15.00;99.90;;;;;;4958911;28;20038;-88
2022/10/08 10:42:12;;;;;;;9.60;2.30;;;14.80;99.90;;;;;;4958295;28;20042;-88
2022/10/08 10:45:13;;;;;;;8.68;2.33;;;14.50;99.90;;;;;;4958608;28;20129;-88
2022/10/08 10:47:39;;;;;;;9.00;1.80;;;14.60;99.90;;;;;;4944640;28;20166;-88
2022/10/08 10:50:12;;;;;;;6.53;1.50;;;14.70;99.90;;;;;;4958836;28;20549;-88
2022/10/08 10:52:44;;;;;;;7.88;1.73;;;14.80;99.90;;;;;;4958501;28;20047;-88
2022/10/08 10:55:28;;;;;;;6.95;1.60;;;14.90;99.90;;;;;;4971285;28;20045;-88
2022/10/08 10:58:18;;;;;;;6.80;1.50;;;15.10;99.90;;;;;;4958132;28;20140;-89
2022/10/08 11:00:59;;;;;;;8.43;1.77;;;15.30;99.90;;;;;;4954849;28;20079;-89
2022/10/08 11:03:43;;;;;;;7.13;1.52;;;15.40;99.90;;;;;;4971894;28;20042;-88
2022/10/08 11:06:27;;;;;;;6.80;1.65;;;15.60;99.90;;;;;;4958377;28;20492;-88
2022/10/08 11:09:14;;;;;;;7.57;1.60;;;15.80;99.90;;;;;;4945055;28;20133;-88
2022/10/08 11:11:48;;;;;;;7.45;1.40;;;16.00;99.90;;;;;;4976656;28;20065;-88
2022/10/08 11:14:41;;;;;;;9.05;1.83;;;16.10;99.90;;;;;;4959008;28;20518;-88
2022/10/08 11:17:28;;;;;;;8.93;1.70;;;16.20;99.90;;;;;;4959304;28;20045;-89
2022/10/08 11:20:09;;;;;;;11.30;2.35;;;16.30;99.90;;;;;;4951922;28;20157;-88
2022/10/08 11:22:42;;;;;;;7.97;1.60;;;16.30;99.90;;;;;;4961234;28;20517;-88
2022/10/08 11:25:26;;;;;;;9.63;1.63;;;16.50;99.90;;;;;;4961169;28;20188;-88
2022/10/08 11:28:13;;;;;;;9.27;1.50;;;16.70;99.90;;;;;;4960012;28;20046;-88
2022/10/08 11:31:12;;;;;;;8.82;1.80;;;16.80;99.90;;;;;;4960618;28;20121;-88
2022/10/08 11:33:39;;;;;;;8.70;1.55;;;16.90;99.90;;;;;;4976787;28;20042;-88
2022/10/08 11:36:31;;;;;;;8.55;1.65;;;17.00;99.90;;;;;;4960509;28;20050;-88
2022/10/08 11:39:17;;;;;;;7.15;1.67;;;17.10;99.90;;;;;;4976907;28;20049;-88
2022/10/08 11:41:53;;;;;;;8.02;1.50;;;17.10;97.70;;;;;;4949186;28;20074;-88
2022/10/08 11:44:20;;;;;;;6.88;1.33;;;17.00;97.30;;;;;;4967748;28;20125;-88
2022/10/08 11:46:46;;;;;;;8.20;1.75;;;17.00;97.30;;;;;;4960348;28;20046;-89
2022/10/08 11:49:14;;;;;;;9.18;1.63;;;17.00;97.90;;;;;;4976814;28;20445;-89
2022/10/08 11:51:50;;;;;;;9.18;1.60;;;17.00;97.20;;;;;;4971941;28;20038;-88
2022/10/08 11:54:27;;;;;;;7.88;1.50;;;17.10;97.90;;;;;;4953109;28;20030;-88
2022/10/08 11:57:33;;;;;;;6.35;1.15;;;17.10;97.30;;;;;;4954468;28;20048;-88
2022/10/08 12:00:33;;;;;;;8.20;1.73;;;17.10;94.20;;;;;;4973730;28;20519;-88
2022/10/08 12:02:59;;;;;;;6.90;1.40;;;17.10;94.00;;;;;;4961155;28;20085;-88
2022/10/08 12:05:25;;;;;;;8.57;1.45;;;17.10;93.00;;;;;;4923265;28;20088;-88
2022/10/08 12:07:52;;;;;;;8.75;1.38;;;17.10;92.30;;;;;;4968962;28;20069;-88
2022/10/08 12:10:18;;;;;;;11.02;1.70;;;17.00;93.60;;;;;;4960008;28;20519;-88
2022/10/08 12:12:49;;;;;;;7.32;1.50;;;17.10;95.10;;;;;;4960091;28;20046;-88
2022/10/08 12:15:28;;;;;;;10.65;1.60;;;17.10;94.60;;;;;;4960321;28;20096;-88
2022/10/08 12:17:54;;;;;;;9.95;1.80;;;17.20;95.30;;;;;;4976569;28;20050;-88
2022/10/08 12:20:26;;;;;;;7.10;1.67;;;17.30;95.40;;;;;;4960350;28;20702;-89
2022/10/08 12:23:10;;;;;;;8.63;1.73;;;17.30;94.80;;;;;;4968213;28;20038;-89
2022/10/08 12:25:40;;;;;;;8.98;1.55;;;17.30;94.10;;;;;;4973781;28;20120;-89
2022/10/08 12:28:34;;;;;;;8.13;1.40;;;17.40;95.10;;;;;;4964768;28;20056;-89
2022/10/08 12:31:13;;;;;;;7.85;1.80;;;17.40;91.60;;;;;;4938737;28;20134;-89
2022/10/08 12:33:39;;;;;;;6.65;1.40;;;17.30;92.60;;;;;;4964427;28;20104;-88
2022/10/08 12:36:22;;;;;;;10.88;1.67;;;17.20;93.70;;;;;;4963089;28;20493;-89
2022/10/08 12:39:19;;;;;;;9.55;1.63;;;17.20;90.60;;;;;;4980745;28;20034;-89
2022/10/08 12:42:07;;;;;;;7.72;1.52;;;17.10;91.20;;;;;;4962096;28;20046;-89
2022/10/08 12:45:10;;;;;;;8.05;1.40;;;17.00;90.70;;;;;;4907932;28;20058;-89
2022/10/08 12:48:40;;;;;;;7.20;1.35;;;16.90;90.20;;;;;;4961072;28;20050;-89
2022/10/08 12:51:12;;;;;;;9.70;1.67;;;16.80;91.90;;;;;;4907555;29;20136;-91
2022/10/08 12:53:45;;;;;;;10.20;1.90;;;16.80;93.00;;;;;;4906728;29;20040;-89
2022/10/08 12:56:20;;;;;;;8.93;1.48;;;16.80;93.30;;;;;;4961355;28;20050;-89
2022/10/08 12:58:48;;;;;;;8.27;1.50;;;16.80;94.00;;;;;;4961137;28;20514;-89
2022/10/08 13:01:16;;;;;;;10.98;1.75;;;16.90;93.80;;;;;;4928227;28;20130;-90
2022/10/08 13:03:42;;;;;;;8.20;1.50;;;16.90;93.50;;;;;;4960436;28;20039;-88
2022/10/08 13:06:25;;;;;;;8.63;1.55;;;16.90;93.10;;;;;;4926707;28;20041;-89
2022/10/08 13:08:52;;;;;;;6.50;1.40;;;16.90;91.90;;;;;;4944172;28;20066;-89